Time;durP1;ratioP1;P1;durP2;ratioP2;P2;SDS_P1;SDS_P2;PMS_P1;PMS_P2;Temp;Humidity;BMP_temperature;BMP_pressure;BME280_temperature;BME280_humidity;BME280_pressure;Samples;Min_cycle;Max_cycle;Signal;HPM_P1;HPM_P2
2023/09/09 00:01:47;;;;;;;4.13;3.50;;;15.90;99.90;;;;;;4193994;28;20040;-64
2023/09/09 00:03:48;;;;;;;6.20;3.67;;;15.90;99.90;;;;;;4192841;28;20143;-65
2023/09/09 00:05:50;;;;;;;5.18;3.47;;;15.80;99.90;;;;;;4193986;28;20500;-64
2023/09/09 00:07:51;;;;;;;5.05;3.83;;;15.80;99.90;;;;;;4192762;28;20842;-59
2023/09/09 00:09:52;;;;;;;8.55;4.68;;;15.70;99.90;;;;;;4194078;28;20044;-64
2023/09/09 00:11:53;;;;;;;5.43;4.47;;;15.70;99.90;;;;;;4192988;28;20535;-65
2023/09/09 00:13:54;;;;;;;4.32;3.92;;;15.60;99.90;;;;;;4193243;28;20048;-66
2023/09/09 00:15:55;;;;;;;5.22;4.00;;;15.60;99.90;;;;;;4193358;28;20094;-66
2023/09/09 00:17:57;;;;;;;20.45;5.93;;;15.50;99.90;;;;;;4192590;28;20451;-65
2023/09/09 00:19:58;;;;;;;6.38;3.88;;;15.40;99.90;;;;;;4193257;28;20048;-63
2023/09/09 00:22:00;;;;;;;6.45;4.43;;;15.40;99.90;;;;;;4192577;28;20098;-64
2023/09/09 00:24:01;;;;;;;5.55;3.70;;;15.30;99.90;;;;;;4193741;28;20562;-58
2023/09/09 00:26:02;;;;;;;4.43;3.72;;;15.30;99.90;;;;;;4192672;28;20036;-64
2023/09/09 00:28:05;;;;;;;4.45;3.45;;;15.30;99.90;;;;;;4194072;28;20036;-65
2023/09/09 00:30:07;;;;;;;6.07;4.28;;;15.20;99.90;;;;;;4193096;28;20435;-60
2023/09/09 00:32:08;;;;;;;4.30;3.90;;;15.20;99.90;;;;;;4187421;28;20090;-65
2023/09/09 00:34:10;;;;;;;5.47;4.03;;;15.20;99.90;;;;;;4192672;28;20098;-58
2023/09/09 00:36:11;;;;;;;9.27;3.90;;;15.20;99.90;;;;;;4194201;28;20032;-60
2023/09/09 00:38:13;;;;;;;5.90;3.55;;;15.20;99.90;;;;;;4192914;28;20036;-59
2023/09/09 00:40:15;;;;;;;6.07;3.80;;;15.20;99.90;;;;;;4194157;28;20040;-63
2023/09/09 00:42:16;;;;;;;6.72;3.67;;;15.20;99.90;;;;;;4192198;28;20036;-62
2023/09/09 00:44:18;;;;;;;4.57;3.38;;;15.20;99.90;;;;;;4193981;28;20025;-64
2023/09/09 00:46:19;;;;;;;4.18;3.15;;;15.20;99.90;;;;;;4194097;28;20476;-60
2023/09/09 00:48:21;;;;;;;7.43;3.85;;;15.20;99.90;;;;;;4195745;28;20044;-63
2023/09/09 00:50:23;;;;;;;4.60;3.72;;;15.20;99.90;;;;;;4196116;28;20381;-62
2023/09/09 00:52:24;;;;;;;6.13;3.80;;;15.20;99.90;;;;;;4196644;28;20037;-60
2023/09/09 00:54:25;;;;;;;5.13;3.60;;;15.20;99.90;;;;;;4196666;28;20081;-62
2023/09/09 00:56:27;;;;;;;3.70;3.30;;;15.20;99.90;;;;;;4195485;28;20044;-64
2023/09/09 00:58:31;;;;;;;4.63;3.80;;;15.10;99.90;;;;;;4197728;28;20036;-64
2023/09/09 01:00:33;;;;;;;6.82;4.00;;;15.20;99.90;;;;;;4195474;28;20098;-63
2023/09/09 01:02:34;;;;;;;5.93;4.45;;;15.20;99.90;;;;;;4196938;28;20044;-59
2023/09/09 01:04:35;;;;;;;6.28;4.43;;;15.10;99.90;;;;;;4195899;28;20082;-63
2023/09/09 01:06:37;;;;;;;4.72;4.00;;;15.10;99.90;;;;;;4196275;28;20098;-62
2023/09/09 01:08:38;;;;;;;6.70;4.03;;;15.10;99.90;;;;;;4196055;28;20036;-64
2023/09/09 01:10:39;;;;;;;4.97;3.80;;;15.10;99.90;;;;;;4196696;28;20485;-62
2023/09/09 01:12:43;;;;;;;6.97;4.50;;;15.00;99.90;;;;;;4196042;28;20025;-64
2023/09/09 01:14:44;;;;;;;9.05;4.13;;;15.00;99.90;;;;;;4196865;28;20105;-63
2023/09/09 01:16:48;;;;;;;4.85;3.80;;;15.00;99.90;;;;;;4195026;28;20036;-60
2023/09/09 01:18:50;;;;;;;5.53;4.13;;;14.90;99.90;;;;;;4195335;28;20082;-62
2023/09/09 01:21:09;;;;;;;4.38;3.50;;;14.90;99.90;;;;;;4195581;28;20048;-60
2023/09/09 01:23:10;;;;;;;4.25;3.63;;;14.90;99.90;;;;;;4195611;28;20090;-60
2023/09/09 01:25:12;;;;;;;4.57;3.50;;;14.90;99.90;;;;;;4193711;28;20028;-59
2023/09/09 01:27:14;;;;;;;7.88;3.80;;;14.80;99.90;;;;;;4195351;28;20024;-60
2023/09/09 01:29:16;;;;;;;4.00;3.58;;;14.80;99.90;;;;;;4196048;28;20032;-58
2023/09/09 01:31:17;;;;;;;5.07;3.63;;;14.80;99.90;;;;;;4195888;28;20036;-66
2023/09/09 01:33:18;;;;;;;7.45;3.85;;;14.80;99.90;;;;;;4194955;28;20090;-60
2023/09/09 01:35:19;;;;;;;6.03;3.80;;;14.80;99.90;;;;;;4194887;28;20028;-64
2023/09/09 01:37:20;;;;;;;3.65;3.33;;;14.80;99.90;;;;;;4196284;28;20025;-60
2023/09/09 01:39:22;;;;;;;4.10;3.63;;;14.80;99.90;;;;;;4195821;28;20534;-59
2023/09/09 01:41:23;;;;;;;3.78;3.17;;;14.80;99.90;;;;;;4195619;28;20095;-59
2023/09/09 01:43:24;;;;;;;6.63;3.97;;;14.80;99.90;;;;;;4195330;28;20098;-60
2023/09/09 01:45:25;;;;;;;6.30;3.50;;;14.80;99.90;;;;;;4196549;28;20086;-61
2023/09/09 01:47:26;;;;;;;4.13;3.45;;;14.70;99.90;;;;;;4195746;28;21105;-59
2023/09/09 01:49:28;;;;;;;5.03;3.78;;;14.60;99.90;;;;;;4196361;28;20040;-57
2023/09/09 01:51:31;;;;;;;7.22;4.18;;;14.60;99.90;;;;;;4195090;28;20033;-60
2023/09/09 01:53:33;;;;;;;6.90;4.30;;;14.60;99.90;;;;;;4196264;28;20114;-60
2023/09/09 01:55:34;;;;;;;7.75;4.15;;;14.60;99.90;;;;;;4195218;28;20033;-61
2023/09/09 01:57:35;;;;;;;5.05;3.55;;;14.50;99.90;;;;;;4194573;28;20052;-60
2023/09/09 01:59:36;;;;;;;10.63;4.05;;;14.40;99.90;;;;;;4196284;28;20622;-64
2023/09/09 02:01:37;;;;;;;6.18;3.92;;;14.40;99.90;;;;;;4195780;28;20083;-64
2023/09/09 02:03:39;;;;;;;7.55;4.05;;;14.30;99.90;;;;;;4178249;28;20190;-62
2023/09/09 02:05:40;;;;;;;6.10;4.07;;;14.30;99.90;;;;;;4195047;28;20078;-63
2023/09/09 02:07:41;;;;;;;4.55;3.95;;;14.30;99.90;;;;;;4195118;28;20554;-63
2023/09/09 02:09:42;;;;;;;5.75;3.72;;;14.20;99.90;;;;;;4195276;28;20086;-58
2023/09/09 02:11:43;;;;;;;5.45;4.05;;;14.20;99.90;;;;;;4195684;28;20037;-62
2023/09/09 02:13:44;;;;;;;10.50;4.57;;;14.10;99.90;;;;;;4193144;28;20098;-65
2023/09/09 02:15:46;;;;;;;7.18;4.65;;;14.10;99.90;;;;;;4194455;28;20586;-63
2023/09/09 02:17:47;;;;;;;6.25;3.97;;;14.10;99.90;;;;;;4194026;28;20044;-62
2023/09/09 02:19:55;;;;;;;4.28;3.70;;;14.10;99.90;;;;;;4195526;28;20036;-61
2023/09/09 02:21:56;;;;;;;4.50;3.92;;;14.00;99.90;;;;;;4195335;28;20047;-62
2023/09/09 02:23:58;;;;;;;6.57;4.20;;;14.00;99.90;;;;;;4195531;28;20040;-63
2023/09/09 02:25:59;;;;;;;4.90;4.35;;;14.00;99.90;;;;;;4195143;28;20089;-65
2023/09/09 02:28:00;;;;;;;9.73;5.70;;;13.90;99.90;;;;;;4195534;28;20062;-62
2023/09/09 02:30:01;;;;;;;9.07;4.95;;;13.80;99.90;;;;;;4194324;28;20086;-63
2023/09/09 02:32:03;;;;;;;6.65;4.38;;;13.70;99.90;;;;;;4195466;28;20020;-62
2023/09/09 02:34:04;;;;;;;7.07;3.97;;;13.60;99.90;;;;;;4194425;28;20470;-64
2023/09/09 02:36:05;;;;;;;5.25;4.10;;;13.60;99.90;;;;;;4195273;28;20041;-64
2023/09/09 02:38:06;;;;;;;6.72;4.03;;;13.60;99.90;;;;;;4195673;28;20021;-61
2023/09/09 02:40:08;;;;;;;5.80;4.63;;;13.60;99.90;;;;;;4193414;28;20117;-61
2023/09/09 02:42:12;;;;;;;11.15;4.18;;;13.60;99.90;;;;;;4195707;28;20051;-63
2023/09/09 02:44:13;;;;;;;4.80;4.03;;;13.60;99.90;;;;;;4193859;28;20488;-62
2023/09/09 02:46:14;;;;;;;6.73;4.43;;;13.60;99.90;;;;;;4196019;28;20477;-61
2023/09/09 02:48:15;;;;;;;8.43;4.70;;;13.60;99.90;;;;;;4194105;28;20024;-64
2023/09/09 02:50:17;;;;;;;6.20;4.18;;;13.70;99.90;;;;;;4194870;28;20032;-59
2023/09/09 02:52:18;;;;;;;11.03;4.87;;;13.70;99.90;;;;;;4194918;28;20357;-64
2023/09/09 02:54:19;;;;;;;5.53;4.23;;;13.70;99.90;;;;;;4195682;28;20169;-64
2023/09/09 02:56:20;;;;;;;4.78;4.03;;;13.70;99.90;;;;;;4194498;28;20028;-64
2023/09/09 02:58:21;;;;;;;6.23;4.27;;;13.60;99.90;;;;;;4177186;28;20436;-60
2023/09/09 03:00:23;;;;;;;4.97;4.30;;;13.60;99.90;;;;;;4194084;28;20056;-61
2023/09/09 03:02:24;;;;;;;9.63;4.37;;;13.60;99.90;;;;;;4195075;28;20025;-63
2023/09/09 03:04:25;;;;;;;7.82;4.55;;;13.50;99.90;;;;;;4194366;28;20086;-65
2023/09/09 03:06:26;;;;;;;5.03;4.00;;;13.50;99.90;;;;;;4194437;28;20086;-62
2023/09/09 03:08:27;;;;;;;7.22;4.50;;;13.50;99.90;;;;;;4194898;28;20435;-63
2023/09/09 03:10:28;;;;;;;5.93;4.40;;;13.50;99.90;;;;;;4193999;28;20772;-64
2023/09/09 03:12:30;;;;;;;8.57;4.90;;;13.50;99.90;;;;;;4195280;28;20573;-64
2023/09/09 03:14:31;;;;;;;7.57;5.00;;;13.60;99.90;;;;;;4192958;28;20102;-60
2023/09/09 03:16:32;;;;;;;6.80;4.05;;;13.60;99.90;;;;;;4195293;28;20043;-61
2023/09/09 03:18:33;;;;;;;7.20;4.57;;;13.60;99.90;;;;;;4192961;28;20090;-62
2023/09/09 03:20:34;;;;;;;7.80;4.30;;;13.60;99.90;;;;;;4195125;28;20085;-58
2023/09/09 03:22:35;;;;;;;4.57;4.13;;;13.50;99.90;;;;;;4194536;28;20074;-64
2023/09/09 03:24:37;;;;;;;4.60;4.17;;;13.40;99.90;;;;;;4194716;28;20032;-65
2023/09/09 03:26:38;;;;;;;7.68;4.88;;;13.40;99.90;;;;;;4193933;28;20029;-62
2023/09/09 03:28:39;;;;;;;5.18;4.47;;;13.30;99.90;;;;;;4194045;28;20095;-62
2023/09/09 03:30:56;;;;;;;7.95;5.05;;;13.30;99.90;;;;;;4194088;28;20032;-60
2023/09/09 03:32:59;;;;;;;8.05;5.05;;;13.30;99.90;;;;;;4193902;28;20086;-61
2023/09/09 03:35:00;;;;;;;7.00;4.22;;;13.20;99.90;;;;;;4194233;28;20078;-62
2023/09/09 03:37:01;;;;;;;8.90;4.93;;;13.20;99.90;;;;;;4194758;28;20050;-64
2023/09/09 03:39:03;;;;;;;4.40;4.00;;;13.20;99.90;;;;;;4194441;28;20020;-60
2023/09/09 03:41:05;;;;;;;8.07;4.10;;;13.20;99.90;;;;;;4193278;28;20048;-64
2023/09/09 03:43:06;;;;;;;7.17;4.37;;;13.20;99.90;;;;;;4193902;28;20040;-60
2023/09/09 03:45:09;;;;;;;7.97;5.67;;;13.10;99.90;;;;;;4193182;28;20040;-63
2023/09/09 03:47:10;;;;;;;10.13;6.10;;;13.10;99.90;;;;;;4194517;28;20024;-61
2023/09/09 03:49:11;;;;;;;12.25;7.75;;;13.00;99.90;;;;;;4193715;28;20044;-63
2023/09/09 03:51:12;;;;;;;11.93;6.93;;;13.00;99.90;;;;;;4193875;28;20090;-60
2023/09/09 03:53:14;;;;;;;9.93;6.40;;;13.00;99.90;;;;;;4192535;28;20041;-66
2023/09/09 03:55:15;;;;;;;7.27;5.67;;;12.90;99.90;;;;;;4194735;28;20036;-60
2023/09/09 03:57:17;;;;;;;9.37;6.37;;;12.90;99.90;;;;;;4192319;28;20503;-64
2023/09/09 03:59:18;;;;;;;9.03;5.40;;;12.90;99.90;;;;;;4194662;28;20097;-62
2023/09/09 04:01:19;;;;;;;9.10;5.77;;;12.90;99.90;;;;;;4192586;28;20052;-61
2023/09/09 04:03:20;;;;;;;8.03;6.00;;;12.90;99.90;;;;;;4192883;28;20053;-60
2023/09/09 04:05:21;;;;;;;11.33;5.87;;;12.90;99.90;;;;;;4175485;28;20123;-64
2023/09/09 04:07:24;;;;;;;11.37;5.10;;;12.90;99.90;;;;;;4193119;28;20098;-63
2023/09/09 04:09:26;;;;;;;17.87;6.60;;;12.90;99.90;;;;;;4193560;28;20033;-61
2023/09/09 04:11:27;;;;;;;12.83;5.63;;;12.90;99.90;;;;;;4175264;28;20045;-56
2023/09/09 04:13:29;;;;;;;13.33;4.87;;;13.00;99.90;;;;;;4194345;28;20029;-65
2023/09/09 04:15:30;;;;;;;13.70;5.13;;;13.00;99.90;;;;;;4192566;28;20041;-61
2023/09/09 04:17:31;;;;;;;12.60;4.97;;;13.10;99.90;;;;;;4193383;28;20090;-64
2023/09/09 04:19:32;;;;;;;15.63;4.83;;;13.30;99.90;;;;;;4192494;28;20024;-62
2023/09/09 04:21:33;;;;;;;14.50;6.37;;;13.50;99.90;;;;;;4193760;28;20033;-60
2023/09/09 04:23:35;;;;;;;12.00;5.65;;;13.60;99.90;;;;;;4193179;28;20037;-65
2023/09/09 04:25:36;;;;;;;11.80;6.75;;;13.80;99.90;;;;;;4193632;28;20048;-59
2023/09/09 04:27:37;;;;;;;14.80;5.50;;;14.10;99.90;;;;;;4192985;28;20594;-58
2023/09/09 04:29:38;;;;;;;10.20;5.70;;;14.40;99.90;;;;;;4194018;28;20037;-65
2023/09/09 04:31:39;;;;;;;10.13;5.75;;;14.80;99.90;;;;;;4192181;28;20431;-63
2023/09/09 04:33:40;;;;;;;11.48;6.15;;;15.20;99.90;;;;;;4193674;28;20028;-65
2023/09/09 04:35:42;;;;;;;8.68;4.60;;;15.50;99.90;;;;;;4192509;28;20141;-61
2023/09/09 04:37:44;;;;;;;10.02;5.43;;;15.90;99.90;;;;;;4193272;28;20551;-59
2023/09/09 04:39:45;;;;;;;11.82;4.80;;;16.20;99.90;;;;;;4193622;28;20155;-60
2023/09/09 04:41:46;;;;;;;11.93;4.65;;;16.40;99.90;;;;;;4193162;28;20036;-61
2023/09/09 04:43:47;;;;;;;7.03;4.68;;;16.70;99.90;;;;;;4193576;28;20079;-61
2023/09/09 04:45:48;;;;;;;9.20;4.80;;;17.00;99.90;;;;;;4192765;28;20039;-64
2023/09/09 04:47:51;;;;;;;11.68;4.60;;;17.30;99.90;;;;;;4193819;28;20025;-60
2023/09/09 04:49:52;;;;;;;9.73;4.70;;;17.60;99.90;;;;;;4192303;28;20122;-64
2023/09/09 04:51:54;;;;;;;11.95;5.10;;;17.90;99.90;;;;;;4193323;28;20502;-66
2023/09/09 04:53:55;;;;;;;7.18;3.92;;;18.20;99.90;;;;;;4191652;28;20972;-62
2023/09/09 04:55:57;;;;;;;12.32;4.50;;;18.50;99.90;;;;;;4193378;28;20041;-63
2023/09/09 04:57:58;;;;;;;11.85;4.38;;;18.80;99.90;;;;;;4193212;28;20029;-64
2023/09/09 05:00:02;;;;;;;11.60;4.28;;;19.30;99.90;;;;;;4193302;28;20094;-61
2023/09/09 05:02:04;;;;;;;9.20;4.25;;;19.70;99.90;;;;;;4192804;28;20025;-64
2023/09/09 05:04:05;;;;;;;9.48;3.63;;;20.00;99.90;;;;;;4193547;28;20121;-65
2023/09/09 05:06:06;;;;;;;8.63;4.15;;;20.20;99.90;;;;;;4191929;28;20032;-66
2023/09/09 05:08:07;;;;;;;4.45;3.95;;;20.40;99.90;;;;;;4192230;28;20037;-64
2023/09/09 05:10:09;;;;;;;8.82;4.28;;;20.60;99.90;;;;;;4193318;28;20448;-61
2023/09/09 05:12:10;;;;;;;10.57;4.75;;;20.80;99.90;;;;;;4193395;28;20029;-62
2023/09/09 05:14:11;;;;;;;9.85;4.30;;;21.10;99.90;;;;;;4193388;28;20025;-59
2023/09/09 05:16:12;;;;;;;14.38;4.60;;;21.30;99.90;;;;;;4192920;28;20037;-65
2023/09/09 05:18:13;;;;;;;13.38;4.95;;;21.70;99.90;;;;;;4192977;28;20044;-61
2023/09/09 05:20:14;;;;;;;14.07;4.10;;;21.90;99.90;;;;;;4204453;28;20040;-62
2023/09/09 05:22:16;;;;;;;5.90;3.38;;;22.20;99.90;;;;;;4192916;28;20032;-60
2023/09/09 05:24:17;;;;;;;8.85;4.57;;;21.80;99.90;;;;;;4191614;28;20098;-60
2023/09/09 05:26:19;;;;;;;6.15;2.70;;;21.80;99.90;;;;;;4193589;28;20098;-60
2023/09/09 05:28:20;;;;;;;8.52;3.50;;;22.30;99.90;;;;;;4192373;28;20062;-61
2023/09/09 05:30:21;;;;;;;4.80;3.03;;;22.70;99.90;;;;;;4193253;28;20029;-59
2023/09/09 05:32:22;;;;;;;4.03;2.65;;;22.80;99.90;;;;;;4191341;28;20086;-59
2023/09/09 05:34:23;;;;;;;3.92;2.47;;;22.70;99.90;;;;;;4194602;28;20040;-59
2023/09/09 05:36:24;;;;;;;5.97;3.13;;;22.90;99.90;;;;;;4194682;28;20507;-61
2023/09/09 05:38:26;;;;;;;4.63;2.50;;;22.90;99.90;;;;;;4195114;28;20044;-62
2023/09/09 05:40:28;;;;;;;2.90;2.28;;;22.90;99.90;;;;;;4195011;28;20052;-62
2023/09/09 05:42:29;;;;;;;7.43;3.72;;;23.10;99.90;;;;;;4195231;28;20028;-64
2023/09/09 05:44:30;;;;;;;7.90;4.38;;;23.10;99.90;;;;;;4195196;28;20021;-65
2023/09/09 05:46:31;;;;;;;7.80;3.58;;;23.50;99.90;;;;;;4194697;28;20025;-61
2023/09/09 05:48:32;;;;;;;7.05;3.22;;;23.80;99.90;;;;;;4195831;28;20029;-62
2023/09/09 05:50:33;;;;;;;6.00;2.92;;;24.30;99.90;;;;;;4195234;28;20552;-64
2023/09/09 05:52:34;;;;;;;4.88;2.38;;;24.60;99.60;;;;;;4195922;28;20495;-63
2023/09/09 05:54:35;;;;;;;7.38;3.00;;;25.00;99.20;;;;;;4194367;28;20086;-60
2023/09/09 05:56:36;;;;;;;4.07;2.70;;;25.60;98.40;;;;;;4195115;28;20086;-60
2023/09/09 05:58:37;;;;;;;4.50;2.35;;;26.00;97.60;;;;;;4194539;28;20037;-64
2023/09/09 06:00:39;;;;;;;3.65;2.65;;;25.50;97.20;;;;;;4194782;28;20477;-64
2023/09/09 06:02:40;;;;;;;5.95;2.40;;;25.30;97.30;;;;;;4193345;28;20098;-63
2023/09/09 06:04:41;;;;;;;4.35;3.13;;;25.30;97.20;;;;;;4194732;28;20159;-64
2023/09/09 06:06:44;;;;;;;5.47;3.10;;;25.60;96.90;;;;;;4194282;28;20066;-63
2023/09/09 06:08:45;;;;;;;4.50;3.17;;;25.80;96.10;;;;;;4193934;28;20066;-60
2023/09/09 06:10:47;;;;;;;5.45;2.70;;;25.20;96.50;;;;;;4194054;28;20078;-61
2023/09/09 06:12:49;;;;;;;4.40;2.42;;;24.80;96.70;;;;;;4194350;28;20044;-64
2023/09/09 06:14:50;;;;;;;3.22;2.72;;;24.50;96.90;;;;;;4194760;28;20634;-62
2023/09/09 06:16:51;;;;;;;5.45;3.78;;;24.60;96.90;;;;;;4194634;28;20176;-64
2023/09/09 06:18:52;;;;;;;4.63;2.90;;;25.00;96.70;;;;;;4194320;28;20062;-64
2023/09/09 06:20:53;;;;;;;3.50;2.90;;;25.40;96.30;;;;;;4194315;28;20483;-63
2023/09/09 06:22:54;;;;;;;4.78;3.00;;;25.80;95.90;;;;;;4195474;28;20032;-64
2023/09/09 06:24:55;;;;;;;4.10;2.88;;;26.40;95.50;;;;;;4193907;28;20086;-64
2023/09/09 06:26:57;;;;;;;3.17;2.30;;;26.40;95.00;;;;;;4187062;28;20389;-61
2023/09/09 06:28:58;;;;;;;4.68;2.75;;;26.30;95.10;;;;;;4185366;28;20481;-69
2023/09/09 06:30:59;;;;;;;3.90;2.53;;;26.60;95.00;;;;;;4195757;28;20090;-62
2023/09/09 06:33:02;;;;;;;4.78;3.00;;;27.00;94.70;;;;;;4194301;28;20067;-63
2023/09/09 06:35:05;;;;;;;6.07;2.55;;;27.40;94.00;;;;;;4195159;28;20101;-64
2023/09/09 06:37:06;;;;;;;9.95;2.75;;;27.70;93.80;;;;;;4194246;28;20078;-62
2023/09/09 06:39:07;;;;;;;4.70;2.28;;;27.60;93.30;;;;;;4193907;28;20114;-64
2023/09/09 06:41:08;;;;;;;5.20;2.38;;;27.60;93.20;;;;;;4193381;28;20470;-62
2023/09/09 06:43:09;;;;;;;8.73;5.35;;;27.40;93.00;;;;;;4193859;28;20032;-65
2023/09/09 06:45:12;;;;;;;12.75;5.82;;;27.00;93.30;;;;;;4192675;28;20586;-61
2023/09/09 06:47:13;;;;;;;9.90;5.80;;;25.80;94.30;;;;;;4193825;28;20032;-65
2023/09/09 06:49:14;;;;;;;8.63;4.65;;;24.90;95.30;;;;;;4194055;28;20052;-63
2023/09/09 06:51:16;;;;;;;16.05;5.10;;;24.20;96.20;;;;;;4193777;28;20037;-62
2023/09/09 06:53:17;;;;;;;8.73;5.18;;;24.30;96.50;;;;;;4195632;28;20082;-64
2023/09/09 06:55:18;;;;;;;11.73;5.18;;;24.50;96.40;;;;;;4193125;28;20484;-62
2023/09/09 06:57:19;;;;;;;9.77;4.90;;;24.50;96.40;;;;;;4194762;28;20032;-62
2023/09/09 06:59:20;;;;;;;9.80;4.68;;;24.60;96.30;;;;;;4192911;28;20443;-63
2023/09/09 07:01:22;;;;;;;7.43;5.45;;;24.50;96.50;;;;;;4195261;28;20094;-60
2023/09/09 07:03:23;;;;;;;10.27;4.72;;;24.20;96.70;;;;;;4192491;28;20056;-61
2023/09/09 07:05:24;;;;;;;8.18;4.43;;;24.40;96.70;;;;;;4194063;28;20142;-61
2023/09/09 07:07:25;;;;;;;15.15;5.13;;;24.30;96.60;;;;;;4194183;28;20036;-62
2023/09/09 07:09:26;;;;;;;8.98;5.03;;;23.80;97.10;;;;;;4193581;28;20036;-61
2023/09/09 07:11:28;;;;;;;9.63;4.22;;;23.60;97.40;;;;;;4193699;28;20024;-60
2023/09/09 07:13:29;;;;;;;6.78;4.68;;;23.60;97.40;;;;;;4194587;28;20044;-61
2023/09/09 07:15:30;;;;;;;9.35;4.10;;;23.50;97.40;;;;;;4193550;28;20113;-60
2023/09/09 07:17:31;;;;;;;9.65;4.72;;;23.50;97.50;;;;;;4192391;28;20050;-64
2023/09/09 07:19:32;;;;;;;14.13;4.72;;;23.40;97.70;;;;;;4193454;28;20117;-60
2023/09/09 07:21:33;;;;;;;6.57;4.28;;;23.40;97.70;;;;;;4193398;28;20070;-62
2023/09/09 07:23:34;;;;;;;10.80;4.60;;;23.40;97.60;;;;;;4193879;28;20143;-60
2023/09/09 07:25:36;;;;;;;8.35;4.60;;;23.60;97.40;;;;;;4193782;28;20468;-61
2023/09/09 07:27:37;;;;;;;6.28;4.15;;;23.80;97.30;;;;;;4193850;28;20094;-66
2023/09/09 07:29:38;;;;;;;13.75;4.85;;;24.10;97.00;;;;;;4193627;28;20040;-62
2023/09/09 07:31:39;;;;;;;9.05;6.22;;;24.20;96.90;;;;;;4193512;28;20041;-61
2023/09/09 07:33:40;;;;;;;10.63;4.95;;;24.50;96.80;;;;;;4193360;28;20477;-59
2023/09/09 07:35:42;;;;;;;15.15;4.80;;;24.60;96.60;;;;;;4194815;28;20121;-61
2023/09/09 07:37:43;;;;;;;10.38;5.18;;;24.50;96.70;;;;;;4193659;28;20063;-64
2023/09/09 07:39:46;;;;;;;4.75;4.22;;;24.10;97.00;;;;;;4194784;28;20105;-65
2023/09/09 07:41:47;;;;;;;14.30;4.90;;;23.80;97.40;;;;;;4191811;28;20056;-60
2023/09/09 07:43:48;;;;;;;11.45;4.35;;;23.90;97.40;;;;;;4194149;28;20124;-63
2023/09/09 07:45:51;;;;;;;5.25;4.30;;;23.80;97.40;;;;;;4192735;28;20074;-59
2023/09/09 07:47:52;;;;;;;7.93;3.80;;;24.10;97.20;;;;;;4175056;28;20107;-64
2023/09/09 07:49:53;;;;;;;8.45;4.03;;;24.20;97.00;;;;;;4193817;28;20051;-61
2023/09/09 07:51:54;;;;;;;8.50;4.35;;;24.30;97.00;;;;;;4193335;28;20036;-65
2023/09/09 07:53:55;;;;;;;6.57;3.97;;;24.60;96.90;;;;;;4194154;28;20109;-63
2023/09/09 07:55:57;;;;;;;8.52;4.70;;;24.50;96.90;;;;;;4192745;28;20029;-61
2023/09/09 07:57:58;;;;;;;6.32;4.38;;;24.50;96.80;;;;;;4193977;28;20044;-64
2023/09/09 08:00:01;;;;;;;8.23;4.30;;;24.50;96.80;;;;;;4193591;28;20554;-64
2023/09/09 08:02:03;;;;;;;6.40;4.00;;;24.50;96.80;;;;;;4194157;28;20093;-62
2023/09/09 08:04:04;;;;;;;5.70;3.78;;;24.70;96.80;;;;;;4192117;28;20094;-66
2023/09/09 08:06:06;;;;;;;8.52;4.20;;;24.90;96.60;;;;;;4193344;28;20097;-67
2023/09/09 08:08:07;;;;;;;8.48;3.53;;;24.90;96.50;;;;;;4191698;28;20090;-68
2023/09/09 08:10:09;;;;;;;8.57;3.70;;;25.00;96.50;;;;;;4194130;28;20028;-68
2023/09/09 08:12:11;;;;;;;10.52;3.95;;;25.20;96.40;;;;;;4192369;28;20128;-61
2023/09/09 08:14:13;;;;;;;6.63;3.95;;;25.20;96.20;;;;;;4192703;28;20044;-61
2023/09/09 08:16:14;;;;;;;12.48;3.70;;;25.30;96.10;;;;;;4192448;28;21046;-62
2023/09/09 08:18:15;;;;;;;4.82;3.40;;;25.40;96.10;;;;;;4192404;28;20028;-65
2023/09/09 08:20:16;;;;;;;7.78;4.28;;;25.60;95.80;;;;;;4192626;28;20016;-60
2023/09/09 08:22:17;;;;;;;7.28;3.90;;;25.70;95.60;;;;;;4192630;28;20048;-61
2023/09/09 08:24:18;;;;;;;9.80;4.90;;;25.80;95.50;;;;;;4193245;28;20032;-60
2023/09/09 08:26:20;;;;;;;10.70;3.67;;;26.00;95.60;;;;;;4192134;28;20550;-62
2023/09/09 08:28:21;;;;;;;6.78;3.58;;;26.30;95.10;;;;;;4194207;28;20101;-60
2023/09/09 08:30:22;;;;;;;10.05;3.85;;;26.30;95.00;;;;;;4192380;28;20040;-59
2023/09/09 08:32:23;;;;;;;8.60;3.95;;;26.10;94.90;;;;;;4193052;28;20189;-57
2023/09/09 08:34:25;;;;;;;5.25;3.50;;;26.10;95.00;;;;;;4191592;28;20382;-65
2023/09/09 08:36:26;;;;;;;5.18;3.60;;;26.20;95.10;;;;;;4193864;28;20468;-62
2023/09/09 08:38:27;;;;;;;6.05;3.25;;;26.10;95.00;;;;;;4192723;28;20065;-60
2023/09/09 08:40:29;;;;;;;7.25;3.97;;;26.10;94.90;;;;;;4193791;28;20047;-55
2023/09/09 08:42:59;;;;;;;7.72;3.30;;;26.00;94.90;;;;;;4191864;28;20450;-60
2023/09/09 08:45:24;;;;;;;6.35;4.28;;;25.80;95.00;;;;;;4193841;28;20037;-62
2023/09/09 08:47:29;;;;;;;4.55;4.05;;;25.80;95.10;;;;;;4191828;28;20033;-61
2023/09/09 08:49:33;;;;;;;4.10;3.60;;;25.80;95.20;;;;;;4193526;28;20029;-65
2023/09/09 08:51:40;;;;;;;10.63;3.67;;;25.80;95.10;;;;;;4191527;28;20094;-58
2023/09/09 08:53:44;;;;;;;4.63;3.22;;;25.80;95.10;;;;;;4193638;28;20367;-61
2023/09/09 08:55:46;;;;;;;4.18;3.00;;;25.80;95.10;;;;;;4191280;28;20442;-58
2023/09/09 08:57:48;;;;;;;6.45;2.80;;;26.20;94.90;;;;;;4193465;28;20048;-60
2023/09/09 08:59:50;;;;;;;6.20;3.67;;;26.20;94.60;;;;;;4192902;28;20453;-61
2023/09/09 09:01:51;;;;;;;5.68;3.88;;;26.50;94.70;;;;;;4193621;28;20079;-62
2023/09/09 09:03:54;;;;;;;4.22;3.00;;;26.60;94.40;;;;;;4191287;28;20041;-61
2023/09/09 09:05:57;;;;;;;9.85;3.42;;;26.80;94.30;;;;;;4192109;28;20036;-64
2023/09/09 09:08:00;;;;;;;5.45;3.20;;;26.80;94.20;;;;;;4194474;28;20467;-61
2023/09/09 09:10:02;;;;;;;6.00;3.15;;;26.70;94.30;;;;;;4195298;28;20059;-60
2023/09/09 09:12:04;;;;;;;3.70;3.05;;;26.50;94.40;;;;;;4196046;28;20074;-61
2023/09/09 09:14:07;;;;;;;7.28;3.42;;;26.30;94.40;;;;;;4190137;28;20032;-65
2023/09/09 09:16:08;;;;;;;3.97;3.10;;;26.10;94.30;;;;;;4179818;28;20592;-60
2023/09/09 09:18:10;;;;;;;8.48;2.97;;;26.20;94.50;;;;;;4183354;28;20029;-60
2023/09/09 09:20:28;;;;;;;7.63;3.22;;;26.10;94.30;;;;;;4195720;28;20105;-60
2023/09/09 09:22:30;;;;;;;5.80;3.50;;;26.40;93.70;;;;;;4194685;28;20114;-61
2023/09/09 09:24:44;;;;;;;6.00;2.88;;;26.60;93.90;;;;;;4196147;28;20037;-62
2023/09/09 09:26:45;;;;;;;8.68;3.95;;;26.60;93.20;;;;;;4194147;28;20040;-63
2023/09/09 09:28:46;;;;;;;5.25;3.00;;;26.50;93.70;;;;;;4196369;28;20017;-68
2023/09/09 09:30:47;;;;;;;5.70;2.80;;;26.50;93.70;;;;;;4195516;28;20028;-58
2023/09/09 09:32:52;;;;;;;3.22;2.92;;;26.80;93.70;;;;;;4196407;28;20024;-59
2023/09/09 09:34:54;;;;;;;4.45;2.70;;;26.70;93.60;;;;;;4194404;28;20597;-67
2023/09/09 09:36:55;;;;;;;5.95;3.50;;;26.60;93.60;;;;;;4195973;28;20090;-59
2023/09/09 09:38:56;;;;;;;10.88;3.15;;;26.50;93.60;;;;;;4193979;28;20036;-58
2023/09/09 09:40:59;;;;;;;4.95;3.13;;;26.50;93.60;;;;;;4195707;28;20048;-60
2023/09/09 09:43:00;;;;;;;3.05;2.70;;;26.30;93.50;;;;;;4194080;28;20089;-59
2023/09/09 09:45:09;;;;;;;4.20;2.45;;;26.10;93.60;;;;;;4193217;28;20032;-61
2023/09/09 09:47:10;;;;;;;5.60;2.45;;;26.00;93.60;;;;;;4195108;28;20029;-61
2023/09/09 09:49:12;;;;;;;3.03;2.30;;;26.00;93.60;;;;;;4177295;28;20037;-64
2023/09/09 09:51:13;;;;;;;3.47;2.55;;;26.10;93.30;;;;;;4195659;28;20017;-59
2023/09/09 09:53:15;;;;;;;3.80;2.20;;;26.30;92.80;;;;;;4194995;28;20032;-64
2023/09/09 09:55:17;;;;;;;4.20;2.65;;;26.50;92.60;;;;;;4195042;28;20496;-65
2023/09/09 09:57:20;;;;;;;3.88;2.60;;;26.70;92.50;;;;;;4194983;28;20407;-60
2023/09/09 09:59:22;;;;;;;3.78;2.70;;;26.70;92.50;;;;;;4195470;28;20546;-59
2023/09/09 10:01:24;;;;;;;3.72;2.15;;;26.80;92.60;;;;;;4193988;28;20098;-61
2023/09/09 10:03:33;;;;;;;2.10;1.77;;;26.80;91.80;;;;;;4195621;28;20308;-59
2023/09/09 10:05:35;;;;;;;5.22;3.08;;;26.70;91.00;;;;;;4194205;28;20150;-60
2023/09/09 10:07:40;;;;;;;3.50;2.00;;;26.70;91.00;;;;;;4195511;28;20485;-59
2023/09/09 10:09:44;;;;;;;5.10;2.03;;;26.80;90.90;;;;;;4190803;28;20118;-65
2023/09/09 10:11:58;;;;;;;3.72;1.92;;;26.90;90.70;;;;;;4195512;28;20040;-62
2023/09/09 10:14:12;;;;;;;8.82;2.70;;;27.00;90.40;;;;;;4193239;28;20105;-66
2023/09/09 10:16:16;;;;;;;3.83;2.15;;;27.20;89.80;;;;;;4179423;28;20194;-63
2023/09/09 10:18:20;;;;;;;7.18;2.50;;;27.30;90.30;;;;;;4178498;28;20091;-60
2023/09/09 10:20:23;;;;;;;6.13;1.67;;;27.30;89.80;;;;;;4177729;28;20441;-59
2023/09/09 10:22:26;;;;;;;2.85;2.03;;;27.10;89.20;;;;;;4193215;28;20060;-63
2023/09/09 10:24:29;;;;;;;3.75;1.60;;;26.80;89.20;;;;;;4194361;28;20381;-60
2023/09/09 10:26:31;;;;;;;3.42;2.47;;;26.80;89.50;;;;;;4193972;28;20158;-64
2023/09/09 10:28:33;;;;;;;2.90;1.75;;;27.00;89.80;;;;;;4195221;28;20094;-64
2023/09/09 10:30:36;;;;;;;5.57;1.80;;;27.10;89.20;;;;;;4193816;28;20468;-65
2023/09/09 10:32:38;;;;;;;5.20;2.20;;;27.20;89.00;;;;;;4195609;28;20029;-64
2023/09/09 10:34:41;;;;;;;2.70;1.92;;;27.30;88.70;;;;;;4193851;28;20040;-62